createdAt,value
2017-07-05T00:00:57.182Z,17.78
2017-07-05T00:05:52.937Z,17.98
2017-07-05T00:10:48.939Z,17.89
2017-07-05T00:15:44.974Z,17.78
2017-07-05T00:20:41.649Z,17.76
2017-07-05T00:25:38.327Z,17.72
2017-07-05T00:30:34.038Z,17.78
2017-07-05T00:35:29.787Z,17.74
2017-07-05T00:40:25.607Z,17.89
2017-07-05T00:45:22.506Z,17.52
2017-07-05T00:50:18.144Z,17.70
2017-07-05T00:55:14.202Z,17.60
2017-07-05T01:00:10.979Z,17.44
2017-07-05T01:05:06.727Z,17.16
2017-07-05T01:10:02.427Z,17.23
2017-07-05T01:14:58.586Z,17.41
2017-07-05T01:19:54.573Z,17.26
2017-07-05T01:24:50.227Z,17.14
2017-07-05T01:29:47.020Z,17.14
2017-07-05T01:34:42.671Z,17.14
2017-07-05T01:39:39.805Z,17.15
2017-07-05T01:44:35.358Z,16.99
2017-07-05T01:49:31.378Z,17.09
2017-07-05T01:54:28.706Z,17.12
2017-07-05T01:59:24.185Z,17.08
2017-07-05T02:04:21.086Z,17.02
2017-07-05T02:09:17.647Z,17.11
2017-07-05T02:14:13.090Z,17.02
2017-07-05T02:19:08.801Z,17.04
2017-07-05T02:24:04.626Z,16.99
2017-07-05T02:29:00.470Z,16.99
2017-07-05T02:33:56.090Z,16.93
2017-07-05T02:38:52.023Z,16.91
2017-07-05T02:43:47.824Z,16.75
2017-07-05T02:48:45.710Z,16.58
2017-07-05T02:53:41.914Z,16.60
2017-07-05T02:58:38.372Z,16.50
2017-07-05T03:03:34.283Z,16.68
2017-07-05T03:08:30.146Z,16.64
2017-07-05T03:13:26.021Z,16.65
2017-07-05T03:18:21.887Z,16.50
2017-07-05T03:23:18.000Z,16.54
2017-07-05T03:28:15.007Z,16.61
2017-07-05T03:33:10.460Z,16.65
2017-07-05T03:38:06.174Z,16.61
2017-07-05T03:43:02.212Z,16.66
2017-07-05T03:47:59.769Z,16.58
2017-07-05T03:52:55.448Z,16.66
2017-07-05T03:57:52.359Z,16.64
2017-07-05T04:02:47.907Z,16.60
2017-07-05T04:07:43.576Z,16.61
2017-07-05T04:12:39.664Z,16.56
2017-07-05T04:17:37.182Z,16.46
2017-07-05T04:22:32.679Z,16.38
2017-07-05T04:27:29.050Z,16.50
2017-07-05T04:32:24.992Z,16.72
2017-07-05T04:37:20.679Z,16.72
2017-07-05T04:42:17.735Z,16.76
2017-07-05T04:47:13.758Z,17.20
2017-07-05T04:52:09.769Z,17.51
2017-07-05T04:57:08.322Z,17.83
2017-07-05T05:02:05.004Z,18.05
2017-07-05T05:07:01.742Z,17.78
2017-07-05T05:11:57.683Z,17.60
2017-07-05T05:16:54.165Z,18.07
2017-07-05T05:21:50.950Z,17.67
2017-07-05T05:26:46.603Z,17.80
2017-07-05T05:31:42.677Z,18.55
2017-07-05T05:36:38.940Z,18.31
2017-07-05T05:41:34.888Z,19.00
2017-07-05T05:46:30.961Z,19.19
2017-07-05T05:51:27.506Z,19.36
2017-07-05T05:56:24.450Z,20.32
2017-07-05T06:01:20.286Z,20.36
2017-07-05T06:06:16.300Z,19.96
2017-07-05T06:11:11.770Z,19.22
2017-07-05T06:16:07.371Z,19.08
2017-07-05T06:21:04.109Z,18.92
2017-07-05T06:25:59.356Z,18.90
2017-07-05T06:30:56.595Z,19.07
2017-07-05T06:35:53.033Z,18.86
2017-07-05T06:40:48.666Z,18.92
2017-07-05T06:45:45.626Z,19.22
2017-07-05T06:50:41.148Z,19.47
2017-07-05T06:55:37.560Z,19.27
2017-07-05T07:00:33.449Z,19.22
2017-07-05T07:05:29.157Z,19.15
2017-07-05T07:10:24.993Z,19.37
2017-07-05T07:15:22.069Z,19.66
2017-07-05T07:20:17.832Z,19.67
2017-07-05T07:25:15.760Z,19.64
2017-07-05T07:30:12.263Z,19.92
2017-07-05T07:35:09.133Z,20.03
2017-07-05T07:51:37.171Z,20.75
2017-07-05T07:56:35.425Z,21.70
2017-07-05T08:01:33.871Z,22.43
2017-07-05T08:06:32.706Z,22.60
2017-07-05T08:11:29.690Z,23.54
2017-07-05T08:16:27.145Z,24.84
2017-07-05T08:21:24.688Z,25.23
2017-07-05T08:26:21.479Z,24.01
2017-07-05T08:31:18.170Z,23.96
2017-07-05T08:36:14.203Z,25.14
2017-07-05T08:41:10.849Z,24.89
2017-07-05T08:46:07.360Z,25.33
2017-07-05T08:51:04.752Z,25.16
2017-07-05T08:56:01.971Z,25.81
2017-07-05T09:00:59.056Z,25.08
2017-07-05T09:05:54.931Z,25.55
2017-07-05T09:10:51.673Z,25.69
2017-07-05T09:15:48.235Z,25.69
2017-07-05T09:20:44.944Z,24.54
2017-07-05T09:25:39.270Z,25.07
2017-07-05T09:30:37.178Z,25.51
2017-07-05T09:35:34.667Z,25.40
2017-07-05T09:40:28.234Z,25.06
2017-07-05T09:45:24.388Z,25.41
2017-07-05T09:50:21.535Z,25.95
2017-07-05T09:55:19.400Z,25.99
2017-07-05T10:00:15.460Z,26.02
2017-07-05T10:05:11.184Z,25.21
2017-07-05T10:10:06.499Z,25.03
2017-07-05T10:15:00.375Z,24.78
2017-07-05T10:19:58.229Z,25.32
2017-07-05T10:24:55.938Z,25.65
2017-07-05T10:29:52.458Z,26.21
2017-07-05T10:34:47.627Z,26.25
2017-07-05T10:39:44.585Z,26.93
2017-07-05T10:44:41.686Z,27.40
2017-07-05T10:49:37.891Z,25.53
2017-07-05T10:54:31.396Z,24.35
2017-07-05T10:59:26.701Z,24.39
2017-07-05T11:04:21.562Z,23.91
2017-07-05T11:09:16.823Z,24.30
2017-07-05T11:14:16.208Z,24.99
2017-07-05T11:19:12.828Z,24.93
2017-07-05T11:24:05.575Z,24.51
2017-07-05T11:29:00.977Z,23.92
2017-07-05T11:33:56.410Z,24.10
2017-07-05T11:38:52.275Z,24.32
2017-07-05T11:43:48.157Z,24.60
2017-07-05T11:48:48.948Z,25.35
2017-07-05T11:53:47.576Z,26.40
2017-07-05T11:58:43.144Z,25.60
2017-07-05T12:03:39.350Z,25.08
2017-07-05T12:08:31.943Z,24.14
2017-07-05T12:13:25.505Z,24.24
2017-07-05T12:18:20.356Z,24.03
2017-07-05T12:23:16.776Z,24.38
2017-07-05T12:28:12.846Z,24.33
2017-07-05T12:33:10.205Z,24.98
2017-07-05T12:38:06.638Z,25.58
2017-07-05T12:43:04.240Z,26.10
2017-07-05T12:48:00.716Z,25.63
2017-07-05T12:52:56.213Z,25.11
2017-07-05T12:57:52.697Z,25.65
2017-07-05T13:02:47.994Z,25.31
2017-07-05T13:07:44.063Z,25.72
2017-07-05T13:12:42.026Z,26.28
2017-07-05T13:17:37.856Z,26.02
2017-07-05T13:22:33.883Z,26.23
2017-07-05T13:27:31.072Z,26.29
2017-07-05T13:32:26.339Z,25.91
2017-07-05T13:37:21.471Z,25.87
2017-07-05T13:42:17.088Z,25.40
2017-07-05T13:47:13.104Z,25.46
2017-07-05T13:52:09.023Z,24.93
2017-07-05T13:57:05.301Z,25.06
2017-07-05T14:02:01.641Z,25.13
2017-07-05T14:06:57.634Z,25.14
2017-07-05T14:11:54.232Z,24.86
2017-07-05T14:16:50.306Z,24.88
2017-07-05T14:21:46.826Z,24.76
2017-07-05T14:26:43.754Z,24.48
2017-07-05T14:31:39.380Z,24.65
2017-07-05T14:36:36.121Z,24.55
2017-07-05T14:41:31.509Z,24.36
2017-07-05T14:46:28.327Z,24.50
2017-07-05T14:51:23.971Z,24.53
2017-07-05T14:56:20.033Z,24.69
2017-07-05T15:01:17.489Z,24.54
2017-07-05T15:06:13.324Z,24.70
2017-07-05T15:11:09.390Z,24.78
2017-07-05T15:16:05.312Z,24.89
2017-07-05T15:21:01.029Z,24.76
2017-07-05T15:25:56.980Z,24.54
2017-07-05T15:30:55.100Z,24.69
2017-07-05T15:35:50.271Z,24.80
2017-07-05T15:40:46.548Z,24.89
2017-07-05T15:45:42.606Z,24.86
2017-07-05T15:50:39.106Z,24.89
2017-07-05T15:55:35.004Z,24.84
2017-07-05T16:00:31.780Z,24.54
2017-07-05T16:05:28.454Z,24.61
2017-07-05T16:10:24.013Z,24.43
2017-07-05T16:15:19.865Z,24.30
2017-07-05T16:20:15.634Z,24.24
2017-07-05T16:25:12.391Z,24.33
2017-07-05T16:30:08.081Z,24.10
2017-07-05T16:35:04.908Z,24.40
2017-07-05T16:40:01.613Z,24.43
2017-07-05T16:44:58.806Z,24.53
2017-07-05T16:49:56.075Z,24.29
2017-07-05T16:54:52.675Z,24.16
2017-07-05T16:59:48.453Z,24.23
2017-07-05T17:04:44.920Z,24.21
2017-07-05T17:09:40.756Z,23.98
2017-07-05T17:14:37.644Z,23.95
2017-07-05T17:19:33.195Z,24.03
2017-07-05T17:24:31.662Z,24.05
2017-07-05T17:29:28.117Z,23.98
2017-07-05T17:34:23.625Z,23.93
2017-07-05T17:39:20.586Z,23.92
2017-07-05T17:44:16.100Z,23.88
2017-07-05T17:49:13.046Z,23.91
2017-07-05T17:54:10.050Z,23.78
2017-07-05T17:59:06.660Z,23.69
2017-07-05T18:04:02.164Z,23.59
2017-07-05T18:08:59.135Z,23.71
2017-07-05T18:13:56.726Z,23.66
2017-07-05T18:18:52.907Z,23.62
2017-07-05T18:23:49.660Z,23.59
2017-07-05T18:28:45.285Z,23.61
2017-07-05T18:33:41.178Z,23.62
2017-07-05T18:38:36.971Z,23.58
2017-07-05T18:43:33.444Z,23.61
2017-07-05T18:48:29.225Z,23.50
2017-07-05T18:53:26.294Z,23.43
2017-07-05T18:58:21.906Z,23.13
2017-07-05T19:03:19.086Z,23.10
2017-07-05T19:08:14.733Z,22.94
2017-07-05T19:13:11.459Z,22.85
2017-07-05T19:18:07.072Z,22.85
2017-07-05T19:23:02.768Z,22.73
2017-07-05T19:28:01.426Z,22.57
2017-07-05T19:32:56.523Z,22.44
2017-07-05T19:37:52.483Z,22.43
2017-07-05T19:42:49.514Z,22.25
2017-07-05T19:47:46.012Z,22.17
2017-07-05T19:52:41.560Z,22.07
2017-07-05T19:57:41.386Z,21.92
2017-07-05T20:02:36.283Z,21.85
2017-07-05T20:07:33.149Z,21.67
2017-07-05T20:12:28.462Z,21.57
2017-07-05T20:17:24.967Z,21.58
2017-07-05T20:22:22.084Z,21.42
2017-07-05T20:27:17.796Z,21.30
2017-07-05T20:32:13.526Z,21.27
2017-07-05T20:37:09.454Z,21.17
2017-07-05T20:42:05.443Z,21.07
2017-07-05T20:47:01.351Z,20.92
2017-07-05T20:51:57.327Z,20.90
2017-07-05T20:56:52.970Z,20.81
2017-07-05T21:01:49.526Z,20.82
2017-07-05T21:06:45.287Z,20.66
2017-07-05T21:11:40.996Z,20.66
2017-07-05T21:16:36.772Z,20.55
2017-07-05T21:21:33.576Z,20.55
2017-07-05T21:26:29.962Z,20.39
2017-07-05T21:31:25.556Z,20.26
2017-07-05T21:36:21.319Z,20.29
2017-07-05T21:41:16.908Z,20.24
2017-07-05T21:46:15.021Z,20.13
2017-07-05T21:51:10.595Z,20.10
2017-07-05T21:56:07.231Z,19.99
2017-07-05T22:01:04.143Z,19.85
2017-07-05T22:06:00.063Z,19.91
2017-07-05T22:10:57.145Z,19.77
2017-07-05T22:15:52.624Z,19.81
2017-07-05T22:20:48.548Z,19.70
2017-07-05T22:25:44.395Z,19.70
2017-07-05T22:30:40.117Z,19.64
2017-07-05T22:35:36.025Z,19.55
2017-07-05T22:40:31.696Z,19.52
2017-07-05T22:45:28.914Z,19.37
2017-07-05T22:50:24.565Z,19.37
2017-07-05T22:55:20.381Z,19.41
2017-07-05T23:00:16.249Z,19.31
2017-07-05T23:05:12.201Z,19.16
2017-07-05T23:10:07.870Z,19.12
2017-07-05T23:15:05.137Z,19.11
2017-07-05T23:20:00.696Z,19.07
2017-07-05T23:24:57.454Z,19.16
2017-07-05T23:29:53.933Z,19.02
2017-07-05T23:34:50.638Z,18.99
2017-07-05T23:39:47.161Z,18.98
2017-07-05T23:44:42.581Z,18.89
2017-07-05T23:49:38.879Z,18.90
2017-07-05T23:54:34.746Z,18.89
2017-07-05T23:59:30.426Z,18.83
